San José, Costa Rica

5:45 PM CST on August 03, 2015 (GMT -0600)
Escalante | | Change Station
CLOSE
Current Station
Personal Weather Station
Location: San Jose, San Jose
Elevation: 3911 ft
Nearby Weather Stations

Elev 3911 ft 9.93 °N, 84.07 °W | Updated 1 second ago

Mostly Cloudy
Mostly Cloudy
70.9 °F
Feels Like 70 °F
N
3.0
Wind Variable Wind from NE
Gusts 21.0 mph

Today
High -- | Low -- °F
--% Chance of Precip.
Yesterday
High -- | Low -- °F
Precip. -- in
5:26 AM 5:58 PM
Waning Gibbous, 83% visible
Pressure 29.91 in
Visibility 6.2 miles
Clouds Few 3000 ft
Mostly Cloudy 25000 ft
Heat Index 70 °F
Dew Point 66 °F
Humidity 84%
Rainfall 0.00 in
Snow Depth Not available.
UV 0.0 out of 12
Pollen Not available.
Air Quality Not available.
Flu Activity Not available.
METAR MRPV 032300Z 07015KT 9999 FEW030 BKN250 25/17 A2991 NOSIG

More Conditions Fewer Conditions

Pressure 29.91 in
Visibility 6.2 miles
Clouds Few 3000 ft
Mostly Cloudy 25000 ft
Heat Index 70 °F
Dew Point 66 °F
Humidity 84%
Rainfall 0.00 in
Snow Depth Not available.
UV 0.0 out of 12
Pollen Not available.
Air Quality Not available.
Flu Activity Not available.
METAR MRPV 032300Z 07015KT 9999 FEW030 BKN250 25/17 A2991 NOSIG

More Conditions Fewer Conditions

10-Day Weather Forecast

×

Almanac

Astronomy

Aug. 03, 2015 Rise Set
Actual Time
Civil Twilight
Nautical Twilight
Astronomical Twilight
Moon
Length of Visible Light
Length of Day
Tomorrow will be .
, % of the Moon is Illuminated

Today's Extremes

Country Highs Country Lows

Community

WunderPhotos

Upload Photos

1,843,791 photos uploaded!

WunderBlogs® & News

Nearby

Air Quality

  Air Quality AQ Index Pollutant
Not available.

Snow Depth

Station Depth Elevation

Earthquake Activity

City Distance Mag. Time & Date
Minimum magnitude displayed is 2.5.

Coastal Water Temperatures

Place Temperature

Stations

Nearby Weather Stations

Station Location Temp. Windchill Dew Point Humidity Wind Precip. Elev Updated Type